sensor_id;sensor_type;location;lat;lon;timestamp;P1;durP1;ratioP1;P2;durP2;ratioP2
25948;SDS011;13961;51.178;4.448;2024-02-21T00:00:14;20.75;;;7.50;;
25948;SDS011;13961;51.178;4.448;2024-02-21T00:02:40;30.90;;;8.35;;
25948;SDS011;13961;51.178;4.448;2024-02-21T00:05:06;24.58;;;7.93;;
25948;SDS011;13961;51.178;4.448;2024-02-21T00:07:32;25.02;;;8.00;;
25948;SDS011;13961;51.178;4.448;2024-02-21T00:09:57;28.92;;;8.68;;
25948;SDS011;13961;51.178;4.448;2024-02-21T00:12:23;22.80;;;8.88;;
25948;SDS011;13961;51.178;4.448;2024-02-21T00:14:49;25.35;;;7.93;;
25948;SDS011;13961;51.178;4.448;2024-02-21T00:17:15;24.80;;;8.10;;
25948;SDS011;13961;51.178;4.448;2024-02-21T00:19:40;18.80;;;7.25;;
25948;SDS011;13961;51.178;4.448;2024-02-21T00:22:06;20.63;;;7.75;;
25948;SDS011;13961;51.178;4.448;2024-02-21T00:24:33;16.50;;;7.28;;
25948;SDS011;13961;51.178;4.448;2024-02-21T00:26:58;25.80;;;7.50;;
25948;SDS011;13961;51.178;4.448;2024-02-21T00:29:24;17.42;;;7.30;;
25948;SDS011;13961;51.178;4.448;2024-02-21T00:31:50;20.73;;;7.18;;
25948;SDS011;13961;51.178;4.448;2024-02-21T00:34:16;20.25;;;7.35;;
25948;SDS011;13961;51.178;4.448;2024-02-21T00:36:42;18.30;;;7.32;;
25948;SDS011;13961;51.178;4.448;2024-02-21T00:39:07;19.23;;;7.53;;
25948;SDS011;13961;51.178;4.448;2024-02-21T00:41:33;22.05;;;7.35;;
25948;SDS011;13961;51.178;4.448;2024-02-21T00:43:58;18.92;;;7.43;;
25948;SDS011;13961;51.178;4.448;2024-02-21T00:46:24;21.67;;;7.78;;
25948;SDS011;13961;51.178;4.448;2024-02-21T00:48:49;19.15;;;6.97;;
25948;SDS011;13961;51.178;4.448;2024-02-21T00:51:15;20.92;;;7.57;;
25948;SDS011;13961;51.178;4.448;2024-02-21T00:53:42;18.65;;;7.88;;
25948;SDS011;13961;51.178;4.448;2024-02-21T00:56:07;19.23;;;7.18;;
25948;SDS011;13961;51.178;4.448;2024-02-21T00:58:33;24.92;;;7.68;;
25948;SDS011;13961;51.178;4.448;2024-02-21T01:01:00;17.65;;;7.05;;
25948;SDS011;13961;51.178;4.448;2024-02-21T01:03:26;23.52;;;7.35;;
25948;SDS011;13961;51.178;4.448;2024-02-21T01:05:52;17.63;;;7.35;;
25948;SDS011;13961;51.178;4.448;2024-02-21T01:08:17;23.33;;;7.30;;
25948;SDS011;13961;51.178;4.448;2024-02-21T01:10:43;22.95;;;7.88;;
25948;SDS011;13961;51.178;4.448;2024-02-21T01:13:09;20.95;;;7.32;;
25948;SDS011;13961;51.178;4.448;2024-02-21T01:15:34;26.52;;;7.05;;
25948;SDS011;13961;51.178;4.448;2024-02-21T01:18:00;18.80;;;7.25;;
25948;SDS011;13961;51.178;4.448;2024-02-21T01:20:26;20.65;;;8.32;;
25948;SDS011;13961;51.178;4.448;2024-02-21T01:22:52;19.73;;;7.53;;
25948;SDS011;13961;51.178;4.448;2024-02-21T01:25:17;17.23;;;7.70;;
25948;SDS011;13961;51.178;4.448;2024-02-21T01:27:43;25.33;;;8.38;;
25948;SDS011;13961;51.178;4.448;2024-02-21T01:30:09;18.08;;;7.43;;
25948;SDS011;13961;51.178;4.448;2024-02-21T01:32:35;23.90;;;7.55;;
25948;SDS011;13961;51.178;4.448;2024-02-21T01:35:01;21.92;;;8.27;;
25948;SDS011;13961;51.178;4.448;2024-02-21T01:37:27;19.88;;;7.90;;
25948;SDS011;13961;51.178;4.448;2024-02-21T01:39:53;22.92;;;8.05;;
25948;SDS011;13961;51.178;4.448;2024-02-21T01:42:18;16.80;;;8.25;;
25948;SDS011;13961;51.178;4.448;2024-02-21T01:44:44;19.85;;;8.38;;
25948;SDS011;13961;51.178;4.448;2024-02-21T01:47:10;24.08;;;9.02;;
25948;SDS011;13961;51.178;4.448;2024-02-21T01:49:38;23.77;;;9.02;;
25948;SDS011;13961;51.178;4.448;2024-02-21T01:52:05;20.23;;;8.13;;
25948;SDS011;13961;51.178;4.448;2024-02-21T01:54:32;17.77;;;7.90;;
25948;SDS011;13961;51.178;4.448;2024-02-21T01:56:58;21.77;;;8.82;;
25948;SDS011;13961;51.178;4.448;2024-02-21T01:59:23;25.75;;;8.43;;
25948;SDS011;13961;51.178;4.448;2024-02-21T02:01:50;32.63;;;8.80;;
25948;SDS011;13961;51.178;4.448;2024-02-21T02:04:17;24.17;;;8.98;;
25948;SDS011;13961;51.178;4.448;2024-02-21T02:06:45;24.90;;;8.77;;
25948;SDS011;13961;51.178;4.448;2024-02-21T02:09:11;22.02;;;8.82;;
25948;SDS011;13961;51.178;4.448;2024-02-21T02:11:37;26.17;;;9.48;;
25948;SDS011;13961;51.178;4.448;2024-02-21T02:14:02;22.75;;;9.43;;
25948;SDS011;13961;51.178;4.448;2024-02-21T02:16:28;18.45;;;9.43;;
25948;SDS011;13961;51.178;4.448;2024-02-21T02:18:54;25.30;;;9.02;;
25948;SDS011;13961;51.178;4.448;2024-02-21T02:21:24;27.88;;;10.07;;
25948;SDS011;13961;51.178;4.448;2024-02-21T02:23:54;23.27;;;9.20;;
25948;SDS011;13961;51.178;4.448;2024-02-21T02:26:21;28.08;;;9.38;;
25948;SDS011;13961;51.178;4.448;2024-02-21T02:28:46;26.65;;;10.18;;
25948;SDS011;13961;51.178;4.448;2024-02-21T02:31:12;31.33;;;10.40;;
25948;SDS011;13961;51.178;4.448;2024-02-21T02:33:37;25.17;;;9.82;;
25948;SDS011;13961;51.178;4.448;2024-02-21T02:36:03;29.58;;;9.95;;
25948;SDS011;13961;51.178;4.448;2024-02-21T02:38:29;31.73;;;10.65;;
25948;SDS011;13961;51.178;4.448;2024-02-21T02:40:55;27.33;;;10.15;;
25948;SDS011;13961;51.178;4.448;2024-02-21T02:43:20;27.25;;;10.52;;
25948;SDS011;13961;51.178;4.448;2024-02-21T02:45:46;31.88;;;10.68;;
25948;SDS011;13961;51.178;4.448;2024-02-21T02:48:11;26.13;;;10.93;;
25948;SDS011;13961;51.178;4.448;2024-02-21T02:50:37;30.38;;;10.98;;
25948;SDS011;13961;51.178;4.448;2024-02-21T02:53:03;27.73;;;11.20;;
25948;SDS011;13961;51.178;4.448;2024-02-21T02:55:28;31.15;;;11.57;;
25948;SDS011;13961;51.178;4.448;2024-02-21T02:57:54;28.08;;;11.40;;
25948;SDS011;13961;51.178;4.448;2024-02-21T03:00:20;30.92;;;11.05;;
25948;SDS011;13961;51.178;4.448;2024-02-21T03:02:48;29.73;;;11.35;;
25948;SDS011;13961;51.178;4.448;2024-02-21T03:05:21;31.90;;;11.20;;
25948;SDS011;13961;51.178;4.448;2024-02-21T03:07:47;23.95;;;11.32;;
25948;SDS011;13961;51.178;4.448;2024-02-21T03:10:14;33.75;;;11.68;;
25948;SDS011;13961;51.178;4.448;2024-02-21T03:12:41;31.63;;;11.30;;
25948;SDS011;13961;51.178;4.448;2024-02-21T03:15:07;26.02;;;11.48;;
25948;SDS011;13961;51.178;4.448;2024-02-21T03:17:33;29.33;;;10.52;;
25948;SDS011;13961;51.178;4.448;2024-02-21T03:19:59;28.23;;;11.45;;
25948;SDS011;13961;51.178;4.448;2024-02-21T03:22:29;29.42;;;10.55;;
25948;SDS011;13961;51.178;4.448;2024-02-21T03:24:55;29.08;;;10.52;;
25948;SDS011;13961;51.178;4.448;2024-02-21T03:27:20;29.73;;;10.82;;
25948;SDS011;13961;51.178;4.448;2024-02-21T03:29:46;33.25;;;10.88;;
25948;SDS011;13961;51.178;4.448;2024-02-21T03:32:11;28.10;;;10.50;;
25948;SDS011;13961;51.178;4.448;2024-02-21T03:34:38;32.05;;;11.27;;
25948;SDS011;13961;51.178;4.448;2024-02-21T03:37:05;30.17;;;10.27;;
25948;SDS011;13961;51.178;4.448;2024-02-21T03:39:31;23.67;;;9.82;;
25948;SDS011;13961;51.178;4.448;2024-02-21T03:41:59;30.30;;;10.73;;
25948;SDS011;13961;51.178;4.448;2024-02-21T03:44:29;26.23;;;10.43;;
25948;SDS011;13961;51.178;4.448;2024-02-21T03:46:58;20.70;;;9.82;;
25948;SDS011;13961;51.178;4.448;2024-02-21T03:49:25;21.80;;;10.02;;
25948;SDS011;13961;51.178;4.448;2024-02-21T03:51:50;26.80;;;10.15;;
25948;SDS011;13961;51.178;4.448;2024-02-21T03:54:16;29.60;;;10.35;;
25948;SDS011;13961;51.178;4.448;2024-02-21T03:56:42;25.05;;;9.38;;
25948;SDS011;13961;51.178;4.448;2024-02-21T03:59:07;23.55;;;9.95;;
25948;SDS011;13961;51.178;4.448;2024-02-21T04:01:33;23.23;;;10.25;;
25948;SDS011;13961;51.178;4.448;2024-02-21T04:03:59;26.83;;;9.30;;
25948;SDS011;13961;51.178;4.448;2024-02-21T04:06:25;25.60;;;10.35;;
25948;SDS011;13961;51.178;4.448;2024-02-21T04:08:51;27.98;;;9.95;;
25948;SDS011;13961;51.178;4.448;2024-02-21T04:11:16;19.98;;;9.13;;
25948;SDS011;13961;51.178;4.448;2024-02-21T04:13:43;25.25;;;9.20;;
25948;SDS011;13961;51.178;4.448;2024-02-21T04:16:10;23.25;;;9.88;;
25948;SDS011;13961;51.178;4.448;2024-02-21T04:18:35;21.92;;;9.27;;
25948;SDS011;13961;51.178;4.448;2024-02-21T04:21:01;22.90;;;9.20;;
25948;SDS011;13961;51.178;4.448;2024-02-21T04:23:27;23.42;;;8.98;;
25948;SDS011;13961;51.178;4.448;2024-02-21T04:25:56;26.27;;;9.93;;
25948;SDS011;13961;51.178;4.448;2024-02-21T04:28:22;24.63;;;9.32;;
25948;SDS011;13961;51.178;4.448;2024-02-21T04:30:47;21.83;;;8.73;;
25948;SDS011;13961;51.178;4.448;2024-02-21T04:33:13;19.33;;;8.63;;
25948;SDS011;13961;51.178;4.448;2024-02-21T04:35:38;23.50;;;8.73;;
25948;SDS011;13961;51.178;4.448;2024-02-21T04:38:04;24.42;;;9.73;;
25948;SDS011;13961;51.178;4.448;2024-02-21T04:40:30;22.13;;;8.85;;
25948;SDS011;13961;51.178;4.448;2024-02-21T04:42:56;21.40;;;9.20;;
25948;SDS011;13961;51.178;4.448;2024-02-21T04:45:22;20.45;;;8.80;;
25948;SDS011;13961;51.178;4.448;2024-02-21T04:47:48;24.20;;;9.70;;
25948;SDS011;13961;51.178;4.448;2024-02-21T04:50:13;24.02;;;9.20;;
25948;SDS011;13961;51.178;4.448;2024-02-21T04:52:39;27.42;;;9.70;;
25948;SDS011;13961;51.178;4.448;2024-02-21T04:55:05;26.67;;;10.88;;
25948;SDS011;13961;51.178;4.448;2024-02-21T04:57:31;22.95;;;9.45;;
25948;SDS011;13961;51.178;4.448;2024-02-21T04:59:56;22.25;;;10.50;;
25948;SDS011;13961;51.178;4.448;2024-02-21T05:02:22;28.48;;;11.15;;
25948;SDS011;13961;51.178;4.448;2024-02-21T05:04:49;22.17;;;10.50;;
25948;SDS011;13961;51.178;4.448;2024-02-21T05:07:15;23.90;;;10.70;;
25948;SDS011;13961;51.178;4.448;2024-02-21T05:09:42;30.42;;;10.95;;
25948;SDS011;13961;51.178;4.448;2024-02-21T05:12:08;25.40;;;10.77;;
25948;SDS011;13961;51.178;4.448;2024-02-21T05:14:33;24.52;;;10.60;;
25948;SDS011;13961;51.178;4.448;2024-02-21T05:16:59;28.48;;;10.50;;
25948;SDS011;13961;51.178;4.448;2024-02-21T05:19:25;28.10;;;11.43;;
25948;SDS011;13961;51.178;4.448;2024-02-21T05:21:50;30.08;;;11.45;;
25948;SDS011;13961;51.178;4.448;2024-02-21T05:24:16;25.70;;;10.75;;
25948;SDS011;13961;51.178;4.448;2024-02-21T05:26:41;28.70;;;11.25;;
25948;SDS011;13961;51.178;4.448;2024-02-21T05:29:07;29.95;;;11.77;;
25948;SDS011;13961;51.178;4.448;2024-02-21T05:31:54;30.23;;;12.23;;
25948;SDS011;13961;51.178;4.448;2024-02-21T05:34:22;29.15;;;11.48;;
25948;SDS011;13961;51.178;4.448;2024-02-21T05:36:48;31.92;;;11.80;;
25948;SDS011;13961;51.178;4.448;2024-02-21T05:39:14;30.80;;;12.35;;
25948;SDS011;13961;51.178;4.448;2024-02-21T05:41:41;33.30;;;12.63;;
25948;SDS011;13961;51.178;4.448;2024-02-21T05:44:07;30.90;;;11.70;;
25948;SDS011;13961;51.178;4.448;2024-02-21T05:46:32;26.58;;;11.52;;
25948;SDS011;13961;51.178;4.448;2024-02-21T05:48:58;33.33;;;12.07;;
25948;SDS011;13961;51.178;4.448;2024-02-21T05:51:23;30.73;;;12.15;;
25948;SDS011;13961;51.178;4.448;2024-02-21T05:53:49;27.73;;;12.40;;
25948;SDS011;13961;51.178;4.448;2024-02-21T05:56:15;32.05;;;12.13;;
25948;SDS011;13961;51.178;4.448;2024-02-21T05:58:40;29.83;;;12.65;;
25948;SDS011;13961;51.178;4.448;2024-02-21T06:01:07;30.17;;;11.88;;
25948;SDS011;13961;51.178;4.448;2024-02-21T06:03:33;29.35;;;12.30;;
25948;SDS011;13961;51.178;4.448;2024-02-21T06:05:59;28.45;;;12.20;;
25948;SDS011;13961;51.178;4.448;2024-02-21T06:08:25;29.70;;;11.88;;
25948;SDS011;13961;51.178;4.448;2024-02-21T06:10:51;29.25;;;11.63;;
25948;SDS011;13961;51.178;4.448;2024-02-21T06:13:23;29.23;;;12.73;;
25948;SDS011;13961;51.178;4.448;2024-02-21T06:15:49;29.30;;;11.98;;
25948;SDS011;13961;51.178;4.448;2024-02-21T06:18:17;25.85;;;11.23;;
25948;SDS011;13961;51.178;4.448;2024-02-21T06:20:43;28.02;;;11.55;;
25948;SDS011;13961;51.178;4.448;2024-02-21T06:23:11;31.48;;;11.35;;
25948;SDS011;13961;51.178;4.448;2024-02-21T06:25:36;29.80;;;11.75;;
25948;SDS011;13961;51.178;4.448;2024-02-21T06:28:02;27.75;;;10.98;;
25948;SDS011;13961;51.178;4.448;2024-02-21T06:30:28;27.98;;;11.05;;
25948;SDS011;13961;51.178;4.448;2024-02-21T06:32:54;24.70;;;11.40;;
25948;SDS011;13961;51.178;4.448;2024-02-21T06:35:24;21.10;;;11.18;;
25948;SDS011;13961;51.178;4.448;2024-02-21T06:37:50;28.30;;;10.73;;
25948;SDS011;13961;51.178;4.448;2024-02-21T06:40:20;27.35;;;10.75;;
25948;SDS011;13961;51.178;4.448;2024-02-21T06:42:48;26.27;;;11.60;;
25948;SDS011;13961;51.178;4.448;2024-02-21T06:45:15;23.50;;;10.80;;
25948;SDS011;13961;51.178;4.448;2024-02-21T06:47:41;21.02;;;10.45;;
25948;SDS011;13961;51.178;4.448;2024-02-21T06:50:07;18.52;;;10.10;;
25948;SDS011;13961;51.178;4.448;2024-02-21T06:52:33;23.85;;;10.93;;
25948;SDS011;13961;51.178;4.448;2024-02-21T06:54:59;26.67;;;10.30;;
25948;SDS011;13961;51.178;4.448;2024-02-21T06:57:25;29.30;;;10.98;;
25948;SDS011;13961;51.178;4.448;2024-02-21T06:59:51;24.17;;;10.88;;
25948;SDS011;13961;51.178;4.448;2024-02-21T07:02:17;24.85;;;10.63;;
25948;SDS011;13961;51.178;4.448;2024-02-21T07:04:42;20.20;;;10.77;;
25948;SDS011;13961;51.178;4.448;2024-02-21T07:07:08;20.17;;;9.55;;
25948;SDS011;13961;51.178;4.448;2024-02-21T07:09:34;26.88;;;10.30;;
25948;SDS011;13961;51.178;4.448;2024-02-21T07:12:00;21.65;;;10.45;;
25948;SDS011;13961;51.178;4.448;2024-02-21T07:14:27;22.90;;;10.77;;
25948;SDS011;13961;51.178;4.448;2024-02-21T07:16:53;25.80;;;11.02;;
25948;SDS011;13961;51.178;4.448;2024-02-21T07:19:19;18.80;;;10.35;;
25948;SDS011;13961;51.178;4.448;2024-02-21T07:21:45;17.88;;;9.93;;
25948;SDS011;13961;51.178;4.448;2024-02-21T07:24:11;18.23;;;10.18;;
25948;SDS011;13961;51.178;4.448;2024-02-21T07:26:37;23.52;;;10.82;;
25948;SDS011;13961;51.178;4.448;2024-02-21T07:29:05;19.48;;;10.15;;
25948;SDS011;13961;51.178;4.448;2024-02-21T07:31:31;21.02;;;10.13;;
25948;SDS011;13961;51.178;4.448;2024-02-21T07:34:03;18.30;;;10.30;;
25948;SDS011;13961;51.178;4.448;2024-02-21T07:36:29;21.67;;;10.55;;
25948;SDS011;13961;51.178;4.448;2024-02-21T07:38:55;20.40;;;10.00;;
25948;SDS011;13961;51.178;4.448;2024-02-21T07:41:21;18.67;;;10.55;;
25948;SDS011;13961;51.178;4.448;2024-02-21T07:43:46;20.55;;;11.40;;
25948;SDS011;13961;51.178;4.448;2024-02-21T07:46:13;18.88;;;10.73;;
25948;SDS011;13961;51.178;4.448;2024-02-21T07:48:39;23.35;;;10.70;;
25948;SDS011;13961;51.178;4.448;2024-02-21T07:51:05;19.25;;;10.25;;
25948;SDS011;13961;51.178;4.448;2024-02-21T07:53:30;18.35;;;10.30;;
25948;SDS011;13961;51.178;4.448;2024-02-21T07:55:56;22.45;;;10.18;;
25948;SDS011;13961;51.178;4.448;2024-02-21T07:58:21;16.27;;;9.98;;
25948;SDS011;13961;51.178;4.448;2024-02-21T08:00:47;20.80;;;11.07;;
25948;SDS011;13961;51.178;4.448;2024-02-21T08:03:13;16.13;;;10.73;;
25948;SDS011;13961;51.178;4.448;2024-02-21T08:05:40;20.75;;;10.93;;
25948;SDS011;13961;51.178;4.448;2024-02-21T08:08:06;21.60;;;10.63;;
25948;SDS011;13961;51.178;4.448;2024-02-21T08:10:33;16.58;;;10.15;;
25948;SDS011;13961;51.178;4.448;2024-02-21T08:12:59;14.88;;;10.65;;
25948;SDS011;13961;51.178;4.448;2024-02-21T08:15:24;15.52;;;11.02;;
25948;SDS011;13961;51.178;4.448;2024-02-21T08:17:54;17.10;;;10.00;;
25948;SDS011;13961;51.178;4.448;2024-02-21T08:20:26;17.00;;;10.73;;
25948;SDS011;13961;51.178;4.448;2024-02-21T08:22:52;19.20;;;10.93;;
25948;SDS011;13961;51.178;4.448;2024-02-21T08:25:17;16.73;;;10.82;;
25948;SDS011;13961;51.178;4.448;2024-02-21T08:27:43;18.52;;;11.23;;
25948;SDS011;13961;51.178;4.448;2024-02-21T08:30:10;19.20;;;11.73;;
25948;SDS011;13961;51.178;4.448;2024-02-21T08:32:36;22.05;;;12.13;;
25948;SDS011;13961;51.178;4.448;2024-02-21T08:35:02;23.45;;;12.73;;
25948;SDS011;13961;51.178;4.448;2024-02-21T08:37:28;25.40;;;14.48;;
25948;SDS011;13961;51.178;4.448;2024-02-21T08:39:53;25.35;;;14.52;;
25948;SDS011;13961;51.178;4.448;2024-02-21T08:42:19;22.92;;;14.43;;
25948;SDS011;13961;51.178;4.448;2024-02-21T08:44:45;33.08;;;15.93;;
25948;SDS011;13961;51.178;4.448;2024-02-21T08:47:10;31.90;;;16.10;;
25948;SDS011;13961;51.178;4.448;2024-02-21T08:49:36;24.23;;;15.02;;
25948;SDS011;13961;51.178;4.448;2024-02-21T08:52:02;25.00;;;15.07;;
25948;SDS011;13961;51.178;4.448;2024-02-21T08:54:28;21.63;;;13.30;;
25948;SDS011;13961;51.178;4.448;2024-02-21T08:56:54;28.20;;;14.82;;
25948;SDS011;13961;51.178;4.448;2024-02-21T08:59:20;28.02;;;14.65;;
25948;SDS011;13961;51.178;4.448;2024-02-21T09:01:45;24.50;;;13.27;;
25948;SDS011;13961;51.178;4.448;2024-02-21T09:04:11;22.55;;;12.38;;
25948;SDS011;13961;51.178;4.448;2024-02-21T09:06:37;22.40;;;11.63;;
25948;SDS011;13961;51.178;4.448;2024-02-21T09:09:06;19.10;;;12.02;;
25948;SDS011;13961;51.178;4.448;2024-02-21T09:11:34;23.52;;;12.60;;
25948;SDS011;13961;51.178;4.448;2024-02-21T09:13:59;21.95;;;10.77;;
25948;SDS011;13961;51.178;4.448;2024-02-21T09:16:25;19.42;;;10.63;;
25948;SDS011;13961;51.178;4.448;2024-02-21T09:18:51;16.38;;;9.75;;
25948;SDS011;13961;51.178;4.448;2024-02-21T09:21:17;18.20;;;9.63;;
25948;SDS011;13961;51.178;4.448;2024-02-21T09:23:43;18.88;;;8.80;;
25948;SDS011;13961;51.178;4.448;2024-02-21T09:26:10;17.05;;;7.82;;
25948;SDS011;13961;51.178;4.448;2024-02-21T09:28:39;13.77;;;7.35;;
25948;SDS011;13961;51.178;4.448;2024-02-21T09:31:04;14.45;;;7.22;;
25948;SDS011;13961;51.178;4.448;2024-02-21T09:33:30;16.88;;;6.95;;
25948;SDS011;13961;51.178;4.448;2024-02-21T09:35:56;12.75;;;7.32;;
25948;SDS011;13961;51.178;4.448;2024-02-21T09:38:21;12.77;;;6.53;;
25948;SDS011;13961;51.178;4.448;2024-02-21T09:40:47;11.55;;;6.25;;
25948;SDS011;13961;51.178;4.448;2024-02-21T09:43:18;14.70;;;6.32;;
25948;SDS011;13961;51.178;4.448;2024-02-21T09:45:46;13.88;;;6.28;;
25948;SDS011;13961;51.178;4.448;2024-02-21T09:51:07;10.90;;;5.40;;
25948;SDS011;13961;51.178;4.448;2024-02-21T09:53:34;13.43;;;5.53;;
25948;SDS011;13961;51.178;4.448;2024-02-21T09:56:02;10.00;;;4.90;;
25948;SDS011;13961;51.178;4.448;2024-02-21T09:58:30;9.70;;;5.60;;
25948;SDS011;13961;51.178;4.448;2024-02-21T10:00:56;11.00;;;5.10;;
25948;SDS011;13961;51.178;4.448;2024-02-21T10:03:23;7.63;;;4.60;;
25948;SDS011;13961;51.178;4.448;2024-02-21T10:05:49;13.50;;;5.47;;
25948;SDS011;13961;51.178;4.448;2024-02-21T10:08:19;11.57;;;4.47;;
25948;SDS011;13961;51.178;4.448;2024-02-21T10:10:45;10.07;;;4.50;;
25948;SDS011;13961;51.178;4.448;2024-02-21T10:13:27;10.38;;;4.43;;
25948;SDS011;13961;51.178;4.448;2024-02-21T10:16:27;11.15;;;4.30;;
25948;SDS011;13961;51.178;4.448;2024-02-21T10:18:46;10.27;;;4.75;;
25948;SDS011;13961;51.178;4.448;2024-02-21T10:21:12;10.38;;;4.30;;
25948;SDS011;13961;51.178;4.448;2024-02-21T10:23:47;11.88;;;4.45;;
25948;SDS011;13961;51.178;4.448;2024-02-21T10:26:14;8.85;;;4.20;;
25948;SDS011;13961;51.178;4.448;2024-02-21T10:28:40;7.78;;;4.40;;
25948;SDS011;13961;51.178;4.448;2024-02-21T10:31:25;9.18;;;4.78;;
25948;SDS011;13961;51.178;4.448;2024-02-21T10:34:01;10.23;;;4.88;;
25948;SDS011;13961;51.178;4.448;2024-02-21T10:36:30;6.50;;;4.60;;
25948;SDS011;13961;51.178;4.448;2024-02-21T10:38:56;10.23;;;4.45;;
25948;SDS011;13961;51.178;4.448;2024-02-21T10:41:22;7.72;;;4.60;;
25948;SDS011;13961;51.178;4.448;2024-02-21T10:43:52;9.85;;;4.70;;
25948;SDS011;13961;51.178;4.448;2024-02-21T10:46:19;10.18;;;4.38;;
25948;SDS011;13961;51.178;4.448;2024-02-21T10:48:47;10.88;;;4.53;;
25948;SDS011;13961;51.178;4.448;2024-02-21T10:51:17;8.90;;;4.43;;
25948;SDS011;13961;51.178;4.448;2024-02-21T10:56:51;9.40;;;4.85;;
25948;SDS011;13961;51.178;4.448;2024-02-21T10:59:18;9.98;;;4.68;;
25948;SDS011;13961;51.178;4.448;2024-02-21T11:01:45;11.50;;;4.75;;
25948;SDS011;13961;51.178;4.448;2024-02-21T11:04:11;11.10;;;4.90;;
25948;SDS011;13961;51.178;4.448;2024-02-21T11:06:37;9.57;;;4.75;;
25948;SDS011;13961;51.178;4.448;2024-02-21T11:09:05;11.10;;;4.60;;
25948;SDS011;13961;51.178;4.448;2024-02-21T11:11:33;11.68;;;4.60;;
25948;SDS011;13961;51.178;4.448;2024-02-21T11:14:09;10.27;;;4.70;;
25948;SDS011;13961;51.178;4.448;2024-02-21T11:16:44;11.30;;;4.93;;
25948;SDS011;13961;51.178;4.448;2024-02-21T11:19:20;14.15;;;5.57;;
25948;SDS011;13961;51.178;4.448;2024-02-21T11:21:53;12.05;;;5.80;;
25948;SDS011;13961;51.178;4.448;2024-02-21T11:24:29;13.68;;;5.75;;
25948;SDS011;13961;51.178;4.448;2024-02-21T11:29:39;12.25;;;6.40;;
25948;SDS011;13961;51.178;4.448;2024-02-21T11:32:09;14.15;;;5.88;;
25948;SDS011;13961;51.178;4.448;2024-02-21T11:34:38;14.70;;;6.32;;
25948;SDS011;13961;51.178;4.448;2024-02-21T11:37:13;14.73;;;6.63;;
25948;SDS011;13961;51.178;4.448;2024-02-21T11:39:42;16.80;;;6.10;;
25948;SDS011;13961;51.178;4.448;2024-02-21T11:42:08;11.43;;;5.38;;
25948;SDS011;13961;51.178;4.448;2024-02-21T11:44:35;10.25;;;5.47;;
25948;SDS011;13961;51.178;4.448;2024-02-21T11:47:05;16.25;;;5.20;;
25948;SDS011;13961;51.178;4.448;2024-02-21T11:49:37;15.13;;;5.25;;
25948;SDS011;13961;51.178;4.448;2024-02-21T11:52:06;11.82;;;5.15;;
25948;SDS011;13961;51.178;4.448;2024-02-21T11:54:33;14.02;;;5.35;;
25948;SDS011;13961;51.178;4.448;2024-02-21T11:57:00;14.90;;;4.93;;
25948;SDS011;13961;51.178;4.448;2024-02-21T11:59:26;19.40;;;5.90;;
25948;SDS011;13961;51.178;4.448;2024-02-21T12:01:54;14.27;;;4.97;;
25948;SDS011;13961;51.178;4.448;2024-02-21T12:04:21;18.17;;;5.55;;
25948;SDS011;13961;51.178;4.448;2024-02-21T12:06:49;15.57;;;6.40;;
25948;SDS011;13961;51.178;4.448;2024-02-21T12:09:18;12.43;;;6.47;;
25948;SDS011;13961;51.178;4.448;2024-02-21T12:11:44;13.45;;;7.10;;
25948;SDS011;13961;51.178;4.448;2024-02-21T12:14:11;14.68;;;7.22;;
25948;SDS011;13961;51.178;4.448;2024-02-21T12:16:41;16.75;;;7.38;;
25948;SDS011;13961;51.178;4.448;2024-02-21T12:19:09;24.95;;;8.02;;
25948;SDS011;13961;51.178;4.448;2024-02-21T12:21:35;20.92;;;7.72;;
25948;SDS011;13961;51.178;4.448;2024-02-21T12:26:48;17.15;;;7.45;;
25948;SDS011;13961;51.178;4.448;2024-02-21T12:29:15;13.57;;;7.22;;
25948;SDS011;13961;51.178;4.448;2024-02-21T12:31:40;12.15;;;6.63;;
25948;SDS011;13961;51.178;4.448;2024-02-21T12:34:06;15.15;;;5.97;;
25948;SDS011;13961;51.178;4.448;2024-02-21T12:36:35;13.50;;;5.80;;
25948;SDS011;13961;51.178;4.448;2024-02-21T12:39:06;13.60;;;5.65;;
25948;SDS011;13961;51.178;4.448;2024-02-21T12:41:33;13.80;;;5.60;;
25948;SDS011;13961;51.178;4.448;2024-02-21T12:44:00;9.27;;;4.43;;
25948;SDS011;13961;51.178;4.448;2024-02-21T12:46:26;15.40;;;4.82;;
25948;SDS011;13961;51.178;4.448;2024-02-21T12:48:51;11.38;;;5.20;;
25948;SDS011;13961;51.178;4.448;2024-02-21T12:51:17;11.27;;;4.32;;
25948;SDS011;13961;51.178;4.448;2024-02-21T12:53:46;13.10;;;4.55;;
25948;SDS011;13961;51.178;4.448;2024-02-21T12:56:15;11.95;;;4.65;;
25948;SDS011;13961;51.178;4.448;2024-02-21T12:58:41;12.27;;;4.30;;
25948;SDS011;13961;51.178;4.448;2024-02-21T13:01:07;12.45;;;4.30;;
25948;SDS011;13961;51.178;4.448;2024-02-21T13:03:32;15.57;;;4.10;;
25948;SDS011;13961;51.178;4.448;2024-02-21T13:05:58;11.07;;;4.30;;
25948;SDS011;13961;51.178;4.448;2024-02-21T13:08:24;10.13;;;4.30;;
25948;SDS011;13961;51.178;4.448;2024-02-21T13:10:50;10.60;;;4.40;;
25948;SDS011;13961;51.178;4.448;2024-02-21T13:13:15;8.48;;;3.85;;
25948;SDS011;13961;51.178;4.448;2024-02-21T13:15:41;11.63;;;4.20;;
25948;SDS011;13961;51.178;4.448;2024-02-21T13:18:10;10.20;;;4.45;;
25948;SDS011;13961;51.178;4.448;2024-02-21T13:20:36;6.82;;;3.65;;
25948;SDS011;13961;51.178;4.448;2024-02-21T13:23:02;9.60;;;3.75;;
25948;SDS011;13961;51.178;4.448;2024-02-21T13:25:28;13.38;;;4.20;;
25948;SDS011;13961;51.178;4.448;2024-02-21T13:27:54;7.75;;;4.00;;
25948;SDS011;13961;51.178;4.448;2024-02-21T13:30:20;8.80;;;4.70;;
25948;SDS011;13961;51.178;4.448;2024-02-21T13:32:46;12.82;;;4.55;;
25948;SDS011;13961;51.178;4.448;2024-02-21T13:35:11;11.35;;;4.80;;
25948;SDS011;13961;51.178;4.448;2024-02-21T13:37:37;12.45;;;4.55;;
25948;SDS011;13961;51.178;4.448;2024-02-21T13:40:04;10.20;;;4.90;;
25948;SDS011;13961;51.178;4.448;2024-02-21T13:42:30;12.52;;;4.82;;
25948;SDS011;13961;51.178;4.448;2024-02-21T13:44:56;11.70;;;5.10;;
25948;SDS011;13961;51.178;4.448;2024-02-21T13:47:21;11.02;;;5.70;;
25948;SDS011;13961;51.178;4.448;2024-02-21T13:49:47;11.50;;;5.60;;
25948;SDS011;13961;51.178;4.448;2024-02-21T13:52:13;12.40;;;5.93;;
25948;SDS011;13961;51.178;4.448;2024-02-21T13:54:39;13.20;;;6.18;;
25948;SDS011;13961;51.178;4.448;2024-02-21T13:57:05;12.80;;;6.22;;
25948;SDS011;13961;51.178;4.448;2024-02-21T13:59:31;15.63;;;6.30;;
25948;SDS011;13961;51.178;4.448;2024-02-21T14:01:58;16.15;;;6.25;;
25948;SDS011;13961;51.178;4.448;2024-02-21T14:04:24;14.35;;;6.35;;
25948;SDS011;13961;51.178;4.448;2024-02-21T14:06:49;15.07;;;6.60;;
25948;SDS011;13961;51.178;4.448;2024-02-21T14:09:15;14.38;;;6.88;;
25948;SDS011;13961;51.178;4.448;2024-02-21T14:11:41;15.02;;;6.50;;
25948;SDS011;13961;51.178;4.448;2024-02-21T14:14:07;22.33;;;7.07;;
25948;SDS011;13961;51.178;4.448;2024-02-21T14:16:32;15.95;;;7.18;;
25948;SDS011;13961;51.178;4.448;2024-02-21T14:18:58;14.60;;;7.07;;
25948;SDS011;13961;51.178;4.448;2024-02-21T14:21:24;12.10;;;7.05;;
25948;SDS011;13961;51.178;4.448;2024-02-21T14:23:50;11.80;;;6.25;;
25948;SDS011;13961;51.178;4.448;2024-02-21T14:26:17;15.98;;;7.05;;
25948;SDS011;13961;51.178;4.448;2024-02-21T14:28:43;14.27;;;6.68;;
25948;SDS011;13961;51.178;4.448;2024-02-21T14:31:09;15.57;;;7.43;;
25948;SDS011;13961;51.178;4.448;2024-02-21T14:33:35;10.50;;;6.43;;
25948;SDS011;13961;51.178;4.448;2024-02-21T14:36:01;15.57;;;7.90;;
25948;SDS011;13961;51.178;4.448;2024-02-21T14:38:30;16.27;;;7.68;;